createdAt,value
2017-10-26T00:15:00.813Z,1015.42
2017-10-26T00:15:08.912Z,1015.91
2017-10-26T00:15:17.067Z,1015.88
2017-10-26T00:15:25.208Z,1015.89
2017-10-26T00:15:33.541Z,1015.82
2017-10-26T00:15:41.471Z,1015.80
2017-10-26T00:15:49.613Z,1015.84
2017-10-26T00:16:05.732Z,1015.88
2017-10-26T00:16:18.649Z,1015.85
2017-10-26T00:16:27.317Z,1015.88
2017-10-26T00:16:35.420Z,1015.84
2017-10-26T00:16:43.545Z,1015.84
2017-10-26T00:16:51.696Z,1015.88
2017-10-26T00:16:59.832Z,1015.90
2017-10-26T00:17:07.965Z,1015.80
2017-10-26T00:17:16.096Z,1015.89
2017-10-26T00:17:30.488Z,1015.89
2017-10-26T00:17:38.213Z,1015.87
2017-10-26T00:17:46.339Z,1015.82
2017-10-26T00:17:59.935Z,1015.81
2017-10-26T00:18:15.205Z,1015.91
2017-10-26T00:18:24.204Z,1015.90
2017-10-26T00:18:32.153Z,1015.86
2017-10-26T00:18:40.284Z,1015.93
2017-10-26T00:18:55.359Z,1015.93
2017-10-26T00:19:03.980Z,1015.84
2017-10-26T00:19:13.724Z,1015.93
2017-10-26T00:19:21.860Z,1015.90
2017-10-26T00:19:31.788Z,1015.82
2017-10-26T00:19:45.499Z,1015.93
2017-10-26T00:20:00.460Z,1015.95
2017-10-26T00:20:09.461Z,1015.92
2017-10-26T00:20:17.401Z,1015.87
2017-10-26T00:20:25.737Z,1015.89
2017-10-26T00:20:40.462Z,1015.90
2017-10-26T00:20:56.000Z,1015.85
2017-10-26T00:21:05.018Z,1015.90
2017-10-26T00:21:12.958Z,1015.94
2017-10-26T00:21:27.947Z,1015.88
2017-10-26T00:21:36.658Z,1015.86
2017-10-26T00:21:52.880Z,1015.78
2017-10-26T00:22:02.194Z,1015.94
2017-10-26T00:22:10.136Z,1015.86
2017-10-26T00:22:18.240Z,1015.87
2017-10-26T00:22:26.375Z,1015.88
2017-10-26T00:22:42.456Z,1015.85
2017-10-26T00:22:59.832Z,1015.85
2017-10-26T00:23:07.238Z,1015.85
2017-10-26T00:23:15.380Z,1015.82
2017-10-26T00:23:23.521Z,1015.92
2017-10-26T00:23:31.656Z,1015.87
2017-10-26T00:23:39.788Z,1015.89
2017-10-26T00:23:47.933Z,1015.90
2017-10-26T00:23:56.060Z,1015.87
2017-10-26T00:24:04.205Z,1015.92
2017-10-26T00:24:12.355Z,1015.90
2017-10-26T00:24:20.484Z,1015.89
2017-10-26T00:24:28.617Z,1015.90
2017-10-26T00:24:36.761Z,1015.90
2017-10-26T00:24:45.104Z,1015.95
2017-10-26T00:24:53.020Z,1015.84
2017-10-26T00:25:01.344Z,1015.91
2017-10-26T00:25:11.101Z,1015.89
2017-10-26T00:25:19.044Z,1015.87
2017-10-26T00:25:27.188Z,1015.89
2017-10-26T00:25:42.184Z,1015.88
2017-10-26T00:25:50.933Z,1015.85
2017-10-26T00:25:59.167Z,1015.88
2017-10-26T00:26:07.190Z,1015.85
2017-10-26T00:26:15.301Z,1015.88
2017-10-26T00:26:23.443Z,1015.90
2017-10-26T00:26:31.593Z,1015.83
2017-10-26T00:26:39.707Z,1015.83
2017-10-26T00:26:47.852Z,1015.99
2017-10-26T00:26:55.977Z,1015.93
2017-10-26T00:27:04.315Z,1015.89
2017-10-26T00:27:12.261Z,1015.87
2017-10-26T00:27:20.389Z,1015.97
2017-10-26T00:27:28.737Z,1015.87
2017-10-26T00:27:48.616Z,1015.92
2017-10-26T00:28:04.421Z,1015.85
2017-10-26T00:28:12.664Z,1015.83
2017-10-26T00:28:20.776Z,1015.91
2017-10-26T00:28:28.885Z,1015.89
2017-10-26T00:28:37.049Z,1015.86
2017-10-26T00:28:57.417Z,1015.89
2017-10-26T00:29:05.517Z,1015.89
2017-10-26T00:29:22.545Z,1015.89
2017-10-26T00:29:30.900Z,1015.80
2017-10-26T00:29:39.210Z,1015.82
2017-10-26T00:29:47.427Z,1015.86
2017-10-26T00:29:55.249Z,1015.84
2017-10-26T00:30:03.433Z,1015.87
2017-10-26T00:30:11.529Z,1015.90
2017-10-26T00:30:28.411Z,1015.85
2017-10-26T00:30:36.823Z,1015.85
2017-10-26T00:30:44.950Z,1015.83
2017-10-26T00:30:53.104Z,1015.88
2017-10-26T00:31:01.413Z,1015.82
2017-10-26T00:31:17.154Z,1015.89
2017-10-26T00:31:26.920Z,1015.88
2017-10-26T00:31:36.538Z,1015.90
2017-10-26T00:31:46.095Z,1015.89
2017-10-26T00:32:00.392Z,1015.86
2017-10-26T00:32:08.097Z,1015.91
2017-10-26T00:32:16.240Z,1015.91
2017-10-26T00:32:24.382Z,1015.87
2017-10-26T00:32:32.533Z,1015.85
2017-10-26T00:32:51.420Z,1015.88
2017-10-26T00:33:06.180Z,1015.88
2017-10-26T00:33:15.013Z,1015.92
2017-10-26T00:33:32.065Z,1015.88
2017-10-26T00:33:40.304Z,1015.93
2017-10-26T00:33:48.436Z,1015.91
2017-10-26T00:34:03.516Z,1015.97
2017-10-26T00:34:12.332Z,1015.89
2017-10-26T00:34:25.021Z,1015.92
2017-10-26T00:34:39.459Z,1015.88
2017-10-26T00:34:48.212Z,1015.88
2017-10-26T00:34:56.520Z,1015.95
2017-10-26T00:35:11.253Z,1015.85
2017-10-26T00:35:20.080Z,1015.96
2017-10-26T00:35:28.368Z,1015.86
2017-10-26T00:35:43.193Z,1015.85
2017-10-26T00:35:52.079Z,1015.91
2017-10-26T00:36:00.028Z,1015.80
2017-10-26T00:36:13.927Z,1015.93
2017-10-26T00:36:27.888Z,1015.89
2017-10-26T00:36:36.122Z,1015.93
2017-10-26T00:36:44.420Z,1015.88
2017-10-26T00:36:52.365Z,1015.92
2017-10-26T00:37:00.696Z,1015.87
2017-10-26T00:37:15.535Z,1015.91
2017-10-26T00:37:31.005Z,1015.92
2017-10-26T00:37:39.813Z,1015.90
2017-10-26T00:37:47.917Z,1015.91
2017-10-26T00:37:56.048Z,1015.92
2017-10-26T00:38:04.375Z,1016.00
2017-10-26T00:38:12.319Z,1015.98
2017-10-26T00:38:20.472Z,1015.95
2017-10-26T00:38:28.600Z,1015.94
2017-10-26T00:38:43.497Z,1015.97
2017-10-26T00:38:52.297Z,1016.03
2017-10-26T00:39:00.816Z,1016.03
2017-10-26T00:39:17.320Z,1015.98
2017-10-26T00:39:25.737Z,1015.99
2017-10-26T00:39:33.881Z,1016.09
2017-10-26T00:39:42.013Z,1015.96
2017-10-26T00:39:51.744Z,1016.02
2017-10-26T00:39:59.880Z,1016.03
2017-10-26T00:40:08.033Z,1015.97
2017-10-26T00:40:16.167Z,1016.01
2017-10-26T00:40:26.113Z,1016.05
2017-10-26T00:40:34.057Z,1016.03
2017-10-26T00:40:49.114Z,1016.06
2017-10-26T00:41:04.029Z,1016.06
2017-10-26T00:41:20.465Z,1016.06
2017-10-26T00:41:28.888Z,1016.01
2017-10-26T00:41:44.804Z,1016.04
2017-10-26T00:41:52.576Z,1016.09
2017-10-26T00:42:00.920Z,1016.11
2017-10-26T00:42:09.054Z,1016.03
2017-10-26T00:42:18.779Z,1016.11
2017-10-26T00:42:26.741Z,1016.11
2017-10-26T00:42:34.881Z,1016.05
2017-10-26T00:42:48.935Z,1016.10
2017-10-26T00:42:57.160Z,1016.11
2017-10-26T00:43:05.493Z,1016.09
2017-10-26T00:43:13.241Z,1016.13
2017-10-26T00:43:29.148Z,1016.08
2017-10-26T00:43:37.524Z,1016.09
2017-10-26T00:43:51.361Z,1016.11
2017-10-26T00:44:07.829Z,1016.10
2017-10-26T00:44:24.188Z,1016.11
2017-10-26T00:44:37.053Z,1016.14
2017-10-26T00:44:52.740Z,1016.16
2017-10-26T00:45:07.292Z,1016.12
2017-10-26T00:45:15.480Z,1016.10
2017-10-26T00:45:30.213Z,1016.04
2017-10-26T00:45:44.247Z,1016.13
2017-10-26T00:46:01.940Z,1016.13
2017-10-26T00:46:10.325Z,1016.18
2017-10-26T00:46:18.447Z,1016.10
2017-10-26T00:46:26.413Z,1016.12
2017-10-26T00:46:34.544Z,1016.05
2017-10-26T00:46:55.665Z,1016.04
2017-10-26T00:47:04.848Z,1016.13
2017-10-26T00:47:12.975Z,1016.07
2017-10-26T00:47:20.915Z,1016.10
2017-10-26T00:47:29.264Z,1016.10
2017-10-26T00:47:37.196Z,1016.10
2017-10-26T00:47:45.328Z,1016.09
2017-10-26T00:48:03.881Z,1016.08
2017-10-26T00:48:12.363Z,1016.08
2017-10-26T00:48:20.508Z,1016.15
2017-10-26T00:48:35.372Z,1016.13
2017-10-26T00:48:48.033Z,1016.07
2017-10-26T00:48:56.450Z,1016.05
2017-10-26T00:49:04.592Z,1016.03
2017-10-26T00:49:12.713Z,1016.13
2017-10-26T00:49:27.918Z,1016.11
2017-10-26T00:49:53.673Z,1016.05
2017-10-26T00:50:08.544Z,1016.03
2017-10-26T00:50:17.183Z,1016.08
2017-10-26T00:50:25.365Z,1016.06
2017-10-26T00:50:33.472Z,1016.03
2017-10-26T00:50:41.678Z,1016.13
2017-10-26T00:50:49.708Z,1016.13
2017-10-26T00:50:57.835Z,1016.06
2017-10-26T00:51:06.018Z,1016.01
2017-10-26T00:51:14.135Z,1016.07
2017-10-26T00:51:22.253Z,1016.05
2017-10-26T00:51:38.142Z,1016.07
2017-10-26T00:51:45.971Z,1016.06
2017-10-26T00:52:00.973Z,1016.04
2017-10-26T00:52:16.478Z,1016.02
2017-10-26T00:52:25.314Z,1016.00
2017-10-26T00:52:33.572Z,1016.14
2017-10-26T00:52:41.488Z,1016.08
2017-10-26T00:52:49.652Z,1016.07
2017-10-26T00:53:11.057Z,1016.16
2017-10-26T00:53:19.776Z,1016.10
2017-10-26T00:53:27.911Z,1016.09
2017-10-26T00:53:36.013Z,1016.09
2017-10-26T00:53:44.153Z,1016.11
2017-10-26T00:53:52.292Z,1016.09
2017-10-26T00:54:00.465Z,1016.07
2017-10-26T00:54:08.556Z,1016.11
2017-10-26T00:54:16.703Z,1016.08
2017-10-26T00:54:24.850Z,1016.11
2017-10-26T00:54:32.971Z,1016.12
2017-10-26T00:54:41.115Z,1016.07
2017-10-26T00:54:49.269Z,1016.15
2017-10-26T00:54:57.392Z,1016.15
2017-10-26T00:55:05.527Z,1016.13
2017-10-26T00:55:20.452Z,1016.08
2017-10-26T00:55:35.878Z,1016.19
2017-10-26T00:55:44.801Z,1016.13
2017-10-26T00:55:52.928Z,1016.12
2017-10-26T00:56:01.088Z,1016.08
2017-10-26T00:56:09.204Z,1016.16
2017-10-26T00:56:17.348Z,1016.15
2017-10-26T00:56:25.528Z,1016.15
2017-10-26T00:56:33.636Z,1016.15
2017-10-26T00:56:41.757Z,1016.16
2017-10-26T00:56:49.908Z,1016.17
2017-10-26T00:56:58.041Z,1016.17
2017-10-26T00:57:06.190Z,1016.16
2017-10-26T00:57:14.300Z,1016.15
2017-10-26T00:57:22.444Z,1016.13
2017-10-26T00:57:30.581Z,1016.16
2017-10-26T00:57:38.742Z,1016.16
2017-10-26T00:57:46.860Z,1016.14
2017-10-26T00:57:55.000Z,1016.15
2017-10-26T00:58:04.747Z,1016.20
2017-10-26T00:58:12.873Z,1016.14
2017-10-26T00:58:21.016Z,1016.14
2017-10-26T00:58:29.153Z,1016.16
2017-10-26T00:58:37.297Z,1016.14
2017-10-26T00:58:45.437Z,1016.14
2017-10-26T00:58:53.560Z,1016.10
2017-10-26T00:59:01.704Z,1016.07
2017-10-26T00:59:09.844Z,1016.11
2017-10-26T00:59:17.984Z,1016.15
2017-10-26T00:59:26.111Z,1016.19
2017-10-26T00:59:34.273Z,1016.11
2017-10-26T00:59:42.400Z,1016.20
2017-10-26T00:59:52.125Z,1016.15
2017-10-26T01:00:00.284Z,1016.13
2017-10-26T01:00:08.404Z,1016.10
2017-10-26T01:00:16.536Z,1016.08
2017-10-26T01:00:24.681Z,1016.02
2017-10-26T01:00:32.812Z,1016.08
2017-10-26T01:00:40.948Z,1016.10
2017-10-26T01:00:49.132Z,1016.04
2017-10-26T01:00:57.228Z,1016.08
2017-10-26T01:01:05.368Z,1016.12
2017-10-26T01:01:13.504Z,1016.01
2017-10-26T01:01:21.640Z,1016.09
2017-10-26T01:01:36.552Z,1016.00
2017-10-26T01:01:45.357Z,1015.98
2017-10-26T01:01:55.089Z,1016.01
2017-10-26T01:02:03.227Z,1015.95
2017-10-26T01:02:12.972Z,1016.01
2017-10-26T01:02:21.092Z,1015.96
2017-10-26T01:02:29.236Z,1016.02
2017-10-26T01:02:37.377Z,1016.02
2017-10-26T01:02:45.508Z,1015.98
2017-10-26T01:02:53.659Z,1015.98
2017-10-26T01:03:01.793Z,1016.01
2017-10-26T01:03:11.545Z,1015.95
2017-10-26T01:03:19.673Z,1016.01
2017-10-26T01:03:27.797Z,1015.94
2017-10-26T01:03:35.943Z,1016.08
2017-10-26T01:03:44.078Z,1016.01
2017-10-26T01:03:52.210Z,1015.92
2017-10-26T01:04:00.360Z,1016.02
2017-10-26T01:04:08.495Z,1015.97
2017-10-26T01:04:18.232Z,1015.97
2017-10-26T01:04:26.368Z,1016.05
2017-10-26T01:04:34.500Z,1015.97
2017-10-26T01:04:42.637Z,1015.94
2017-10-26T01:04:50.781Z,1016.02
2017-10-26T01:04:58.911Z,1015.95
2017-10-26T01:05:07.061Z,1015.95
2017-10-26T01:05:15.200Z,1015.98
2017-10-26T01:05:23.336Z,1015.97
2017-10-26T01:05:31.461Z,1016.03
2017-10-26T01:05:39.615Z,1016.00
2017-10-26T01:05:47.735Z,1015.93
2017-10-26T01:05:55.879Z,1015.98
2017-10-26T01:06:04.020Z,1015.98
2017-10-26T01:06:12.181Z,1015.99
2017-10-26T01:06:20.301Z,1016.03
2017-10-26T01:06:28.436Z,1016.05
2017-10-26T01:06:38.169Z,1016.06
2017-10-26T01:06:46.304Z,1015.97
2017-10-26T01:06:58.391Z,1016.02
2017-10-26T01:07:07.447Z,1016.02
2017-10-26T01:07:15.536Z,1016.01
2017-10-26T01:07:23.667Z,1015.87
2017-10-26T01:07:31.800Z,1016.04
2017-10-26T01:07:39.925Z,1015.91
2017-10-26T01:07:49.679Z,1015.99
2017-10-26T01:07:57.801Z,1015.98
2017-10-26T01:08:05.965Z,1016.00
2017-10-26T01:08:14.079Z,1016.00
2017-10-26T01:08:22.225Z,1015.98
2017-10-26T01:08:30.353Z,1016.05
2017-10-26T01:08:38.512Z,1016.06
2017-10-26T01:08:46.634Z,1016.03
2017-10-26T01:08:54.761Z,1015.93
2017-10-26T01:09:02.904Z,1016.02
2017-10-26T01:09:13.200Z,1015.97
2017-10-26T01:09:20.776Z,1015.99
2017-10-26T01:09:28.923Z,1015.97
2017-10-26T01:09:43.456Z,1016.04
2017-10-26T01:09:53.137Z,1015.99
2017-10-26T01:10:01.328Z,1015.96
2017-10-26T01:10:09.468Z,1015.97
2017-10-26T01:10:17.612Z,1015.97
2017-10-26T01:10:25.754Z,1016.02
2017-10-26T01:10:33.896Z,1015.97
2017-10-26T01:10:42.021Z,1015.88
2017-10-26T01:10:50.355Z,1016.02
2017-10-26T01:10:58.293Z,1015.96
2017-10-26T01:11:06.432Z,1016.00
2017-10-26T01:11:14.575Z,1015.96
2017-10-26T01:11:22.705Z,1015.93
2017-10-26T01:11:30.848Z,1015.89
2017-10-26T01:11:38.981Z,1015.94
2017-10-26T01:11:47.120Z,1015.96
2017-10-26T01:11:55.256Z,1015.92
2017-10-26T01:12:08.541Z,1015.94
2017-10-26T01:12:16.685Z,1015.99
2017-10-26T01:12:24.805Z,1015.96
2017-10-26T01:12:32.932Z,1015.98
2017-10-26T01:12:41.061Z,1015.96
2017-10-26T01:12:49.192Z,1015.93
2017-10-26T01:12:57.343Z,1016.00
2017-10-26T01:13:05.485Z,1015.98
2017-10-26T01:13:13.628Z,1015.88
2017-10-26T01:13:21.747Z,1015.94
2017-10-26T01:13:29.889Z,1015.94
2017-10-26T01:13:44.284Z,1015.92
2017-10-26T01:13:51.988Z,1015.92
2017-10-26T01:14:00.129Z,1015.94
2017-10-26T01:14:08.273Z,1015.96
2017-10-26T01:14:16.456Z,1015.92
2017-10-26T01:14:24.557Z,1015.96
2017-10-26T01:14:32.688Z,1015.91
2017-10-26T01:14:40.817Z,1015.86
2017-10-26T01:14:48.957Z,1015.92
2017-10-26T01:14:57.100Z,1016.01
2017-10-26T01:15:05.245Z,1015.98
2017-10-26T01:15:13.375Z,1015.94
2017-10-26T01:15:21.504Z,1015.96
2017-10-26T01:15:29.659Z,1015.96
2017-10-26T01:15:37.772Z,1015.95
2017-10-26T01:15:45.943Z,1015.94
2017-10-26T01:15:54.075Z,1015.92
2017-10-26T01:16:02.221Z,1015.92
2017-10-26T01:16:10.349Z,1015.96
2017-10-26T01:16:18.472Z,1015.93
2017-10-26T01:16:28.200Z,1015.90
2017-10-26T01:16:36.355Z,1015.92
2017-10-26T01:16:44.476Z,1015.93
2017-10-26T01:16:52.628Z,1016.02
2017-10-26T01:17:00.777Z,1015.96
2017-10-26T01:17:08.901Z,1015.93
2017-10-26T01:17:17.039Z,1015.93
2017-10-26T01:17:25.209Z,1015.96
2017-10-26T01:17:33.310Z,1015.87
2017-10-26T01:17:41.448Z,1015.91
2017-10-26T01:18:04.116Z,1015.85
2017-10-26T01:18:12.256Z,1015.91
2017-10-26T01:18:20.407Z,1015.86
2017-10-26T01:18:28.545Z,1015.86
2017-10-26T01:18:36.676Z,1015.87
2017-10-26T01:18:44.832Z,1015.86
2017-10-26T01:18:52.951Z,1015.87
2017-10-26T01:19:01.091Z,1015.90
2017-10-26T01:19:09.239Z,1015.88
2017-10-26T01:19:17.369Z,1015.88
2017-10-26T01:19:25.504Z,1015.89
2017-10-26T01:19:33.636Z,1015.91
2017-10-26T01:19:41.773Z,1015.90
2017-10-26T01:19:49.925Z,1015.88
2017-10-26T01:19:58.049Z,1015.86
2017-10-26T01:20:07.793Z,1015.87
2017-10-26T01:20:17.519Z,1015.80
2017-10-26T01:20:25.660Z,1015.81
2017-10-26T01:20:33.808Z,1015.91
2017-10-26T01:20:41.940Z,1015.83
2017-10-26T01:20:50.085Z,1015.88
2017-10-26T01:20:58.209Z,1015.87
2017-10-26T01:21:06.344Z,1015.83
2017-10-26T01:21:14.485Z,1015.82
2017-10-26T01:21:22.642Z,1015.91
2017-10-26T01:21:30.773Z,1015.92
2017-10-26T01:21:40.686Z,1015.86
2017-10-26T01:21:48.636Z,1015.87
2017-10-26T01:22:02.532Z,1015.92
2017-10-26T01:22:10.756Z,1015.85
2017-10-26T01:22:18.884Z,1015.87
2017-10-26T01:22:27.036Z,1015.85
2017-10-26T01:22:35.163Z,1015.84
2017-10-26T01:22:45.076Z,1015.83
2017-10-26T01:22:53.036Z,1015.86
2017-10-26T01:23:01.176Z,1015.80
2017-10-26T01:23:09.300Z,1015.82
2017-10-26T01:23:17.457Z,1015.92
2017-10-26T01:23:25.591Z,1015.90
2017-10-26T01:23:33.717Z,1015.89
2017-10-26T01:23:41.857Z,1015.88
2017-10-26T01:23:50.005Z,1015.84
2017-10-26T01:23:58.136Z,1015.88
2017-10-26T01:24:07.867Z,1015.82
2017-10-26T01:24:16.015Z,1015.87
2017-10-26T01:24:24.161Z,1015.86
2017-10-26T01:24:32.296Z,1015.86
2017-10-26T01:24:40.420Z,1015.83
2017-10-26T01:24:50.172Z,1015.86
2017-10-26T01:24:58.300Z,1015.82
2017-10-26T01:25:06.430Z,1015.87
2017-10-26T01:25:14.573Z,1015.86
2017-10-26T01:25:24.516Z,1015.87
2017-10-26T01:25:32.452Z,1015.88
2017-10-26T01:25:40.576Z,1015.90
2017-10-26T01:25:48.721Z,1015.81
2017-10-26T01:25:56.872Z,1015.83
2017-10-26T01:26:05.017Z,1015.87
2017-10-26T01:26:17.912Z,1015.81
2017-10-26T01:26:28.693Z,1015.83
2017-10-26T01:26:36.849Z,1015.84
2017-10-26T01:26:44.984Z,1015.92
2017-10-26T01:26:53.117Z,1015.88
2017-10-26T01:27:01.248Z,1015.89
2017-10-26T01:27:09.393Z,1015.89
2017-10-26T01:27:17.537Z,1015.85
2017-10-26T01:27:25.855Z,1015.86
2017-10-26T01:27:33.816Z,1015.88
2017-10-26T01:27:41.932Z,1015.88
2017-10-26T01:28:04.621Z,1015.85
2017-10-26T01:28:12.757Z,1015.86
2017-10-26T01:28:20.894Z,1015.84
2017-10-26T01:28:29.024Z,1015.82
2017-10-26T01:28:37.169Z,1015.84
2017-10-26T01:28:46.905Z,1015.86
2017-10-26T01:28:55.043Z,1015.85
2017-10-26T01:29:03.173Z,1015.88
2017-10-26T01:29:11.328Z,1015.88
2017-10-26T01:29:21.063Z,1015.87
2017-10-26T01:29:29.197Z,1015.90
2017-10-26T01:29:37.332Z,1015.87
2017-10-26T01:29:45.480Z,1015.92
2017-10-26T01:29:53.613Z,1015.78
2017-10-26T01:30:01.753Z,1015.84
2017-10-26T01:30:09.884Z,1015.84
2017-10-26T01:30:18.024Z,1015.88
2017-10-26T01:30:27.757Z,1015.81
2017-10-26T01:30:37.492Z,1015.76
2017-10-26T01:30:45.629Z,1015.91
2017-10-26T01:30:55.376Z,1015.81
2017-10-26T01:31:03.500Z,1015.83
2017-10-26T01:31:11.653Z,1015.87
2017-10-26T01:31:19.788Z,1015.80
2017-10-26T01:31:27.924Z,1015.86
2017-10-26T01:31:36.048Z,1015.86
2017-10-26T01:31:44.204Z,1015.83
2017-10-26T01:31:53.948Z,1015.81
2017-10-26T01:32:02.077Z,1015.84
2017-10-26T01:32:10.217Z,1015.77
2017-10-26T01:32:18.344Z,1015.85
2017-10-26T01:32:26.480Z,1015.86
2017-10-26T01:32:34.633Z,1015.81
2017-10-26T01:32:42.951Z,1015.78
2017-10-26T01:32:50.899Z,1015.83
2017-10-26T01:32:59.032Z,1015.72
2017-10-26T01:33:07.164Z,1015.85
2017-10-26T01:33:15.317Z,1015.77
2017-10-26T01:33:23.461Z,1015.86
2017-10-26T01:33:31.585Z,1015.77
2017-10-26T01:33:39.723Z,1015.83
2017-10-26T01:33:47.853Z,1015.81
2017-10-26T01:33:55.996Z,1015.76
2017-10-26T01:34:04.197Z,1015.83
2017-10-26T01:34:17.661Z,1015.77
2017-10-26T01:34:26.241Z,1015.78
2017-10-26T01:34:36.012Z,1015.80
2017-10-26T01:34:44.124Z,1015.82
2017-10-26T01:34:53.860Z,1015.75
2017-10-26T01:35:02.011Z,1015.70
2017-10-26T01:35:10.140Z,1015.72
2017-10-26T01:35:23.087Z,1015.78
2017-10-26T01:35:31.217Z,1015.82
2017-10-26T01:35:39.348Z,1015.80
2017-10-26T01:35:47.476Z,1015.78
2017-10-26T01:35:55.612Z,1015.77
2017-10-26T01:36:03.752Z,1015.80
2017-10-26T01:36:11.901Z,1015.77
2017-10-26T01:36:20.045Z,1015.84
2017-10-26T01:36:28.573Z,1015.76
2017-10-26T01:36:36.304Z,1015.85
2017-10-26T01:36:44.444Z,1015.81
2017-10-26T01:36:52.589Z,1015.80
2017-10-26T01:37:02.316Z,1015.78
2017-10-26T01:37:10.472Z,1015.82
2017-10-26T01:37:18.604Z,1015.80
2017-10-26T01:37:26.744Z,1015.80
2017-10-26T01:37:36.499Z,1015.76
2017-10-26T01:37:44.609Z,1015.85
2017-10-26T01:37:52.748Z,1015.75
2017-10-26T01:38:02.491Z,1015.82
2017-10-26T01:38:10.625Z,1015.79
2017-10-26T01:38:18.764Z,1015.82
2017-10-26T01:38:28.512Z,1015.78
2017-10-26T01:38:36.637Z,1015.78
2017-10-26T01:38:44.768Z,1015.86
2017-10-26T01:39:07.448Z,1015.80
2017-10-26T01:39:15.585Z,1015.77
2017-10-26T01:39:23.720Z,1015.79
2017-10-26T01:39:31.859Z,1015.78
2017-10-26T01:39:41.800Z,1015.87
2017-10-26T01:39:49.745Z,1015.77
2017-10-26T01:39:59.468Z,1015.79
2017-10-26T01:40:09.209Z,1015.78
2017-10-26T01:40:17.535Z,1015.78
2017-10-26T01:40:25.484Z,1015.78
2017-10-26T01:40:33.629Z,1015.72
2017-10-26T01:40:41.772Z,1015.67
2017-10-26T01:40:51.495Z,1015.83
2017-10-26T01:40:59.660Z,1015.76
2017-10-26T01:41:07.777Z,1015.83
2017-10-26T01:41:17.519Z,1015.75
2017-10-26T01:41:27.268Z,1015.67
2017-10-26T01:41:35.400Z,1015.74
2017-10-26T01:41:43.520Z,1015.77
2017-10-26T01:41:51.678Z,1015.76
2017-10-26T01:41:59.804Z,1015.79
2017-10-26T01:42:07.939Z,1015.83
2017-10-26T01:42:16.076Z,1015.74
2017-10-26T01:42:24.220Z,1015.77
2017-10-26T01:42:32.352Z,1015.82
2017-10-26T01:42:40.520Z,1015.78
2017-10-26T01:42:48.681Z,1015.76
2017-10-26T01:42:58.400Z,1015.74
2017-10-26T01:43:06.512Z,1015.75
2017-10-26T01:43:14.633Z,1015.78
2017-10-26T01:43:22.945Z,1015.81
2017-10-26T01:43:32.515Z,1015.84
2017-10-26T01:43:40.656Z,1015.77
2017-10-26T01:43:48.788Z,1015.79
2017-10-26T01:43:56.924Z,1015.77
2017-10-26T01:44:05.072Z,1015.80
2017-10-26T01:44:13.203Z,1015.78
2017-10-26T01:44:21.345Z,1015.80
2017-10-26T01:44:31.081Z,1015.80
2017-10-26T01:44:39.251Z,1015.74
2017-10-26T01:44:47.360Z,1015.85
2017-10-26T01:44:55.485Z,1015.76
2017-10-26T01:45:05.237Z,1015.79
2017-10-26T01:45:13.360Z,1015.84
2017-10-26T01:45:21.697Z,1015.80
2017-10-26T01:45:29.640Z,1015.82
2017-10-26T01:45:39.372Z,1015.81
2017-10-26T01:45:47.514Z,1015.79
2017-10-26T01:45:55.652Z,1015.77
2017-10-26T01:46:03.788Z,1015.81
2017-10-26T01:46:16.667Z,1015.79
2017-10-26T01:46:25.901Z,1015.87
2017-10-26T01:46:34.036Z,1015.79
2017-10-26T01:46:42.160Z,1015.80
2017-10-26T01:46:50.301Z,1015.83
2017-10-26T01:46:58.441Z,1015.80
2017-10-26T01:47:06.581Z,1015.78
2017-10-26T01:47:14.711Z,1015.80
2017-10-26T01:47:24.454Z,1015.83
2017-10-26T01:47:34.184Z,1015.79
2017-10-26T01:47:42.359Z,1015.84
2017-10-26T01:47:50.472Z,1015.88
2017-10-26T01:48:00.196Z,1015.90
2017-10-26T01:48:08.352Z,1015.87
2017-10-26T01:48:16.494Z,1015.84
2017-10-26T01:48:26.212Z,1015.84
2017-10-26T01:48:35.957Z,1015.76
2017-10-26T01:48:44.092Z,1015.88
2017-10-26T01:48:52.236Z,1015.87
2017-10-26T01:49:01.975Z,1015.84
2017-10-26T01:49:10.100Z,1015.87
2017-10-26T01:49:18.255Z,1015.91
2017-10-26T01:49:26.392Z,1015.92
2017-10-26T01:49:34.508Z,1015.84
2017-10-26T01:49:42.644Z,1015.91
2017-10-26T01:49:50.792Z,1015.86
2017-10-26T01:49:58.930Z,1015.84
2017-10-26T01:50:11.861Z,1015.91
2017-10-26T01:50:20.013Z,1015.87
2017-10-26T01:50:28.136Z,1015.91
2017-10-26T01:50:36.280Z,1015.86
2017-10-26T01:50:44.421Z,1015.92
2017-10-26T01:50:52.552Z,1015.92
2017-10-26T01:51:05.459Z,1015.86
2017-10-26T01:51:16.261Z,1015.87
2017-10-26T01:51:24.399Z,1015.85
2017-10-26T01:51:38.285Z,1015.85
2017-10-26T01:51:46.513Z,1015.92
2017-10-26T01:51:56.244Z,1015.88
2017-10-26T01:52:04.369Z,1015.90
2017-10-26T01:52:12.513Z,1015.91
2017-10-26T01:52:22.244Z,1015.88
2017-10-26T01:52:30.387Z,1015.86
2017-10-26T01:52:38.536Z,1015.88
2017-10-26T01:52:46.680Z,1015.89
2017-10-26T01:52:54.801Z,1015.88
2017-10-26T01:53:04.531Z,1015.86
2017-10-26T01:53:12.667Z,1015.89
2017-10-26T01:53:22.424Z,1015.89
2017-10-26T01:53:30.560Z,1015.93
2017-10-26T01:53:38.676Z,1015.86
2017-10-26T01:53:46.824Z,1015.91
2017-10-26T01:53:54.956Z,1015.91
2017-10-26T01:54:03.096Z,1015.90
2017-10-26T01:54:11.242Z,1015.84
2017-10-26T01:54:20.979Z,1015.83
2017-10-26T01:54:30.717Z,1015.84
2017-10-26T01:54:39.060Z,1015.88
2017-10-26T01:54:46.996Z,1015.87
2017-10-26T01:54:55.137Z,1015.89
2017-10-26T01:55:04.862Z,1015.91
2017-10-26T01:55:13.009Z,1015.95
2017-10-26T01:55:21.136Z,1015.87
2017-10-26T01:55:29.269Z,1015.85
2017-10-26T01:55:37.404Z,1015.86
2017-10-26T01:55:47.144Z,1015.86
2017-10-26T01:55:55.276Z,1015.89
2017-10-26T01:56:03.431Z,1015.86
2017-10-26T01:56:11.564Z,1015.89
2017-10-26T01:56:19.704Z,1015.87
2017-10-26T01:56:29.492Z,1015.86
2017-10-26T01:56:37.573Z,1015.85
2017-10-26T01:56:47.317Z,1015.92
2017-10-26T01:56:55.658Z,1015.85
2017-10-26T01:57:03.592Z,1015.91
2017-10-26T01:57:11.720Z,1015.85
2017-10-26T01:57:19.860Z,1015.89
2017-10-26T01:57:28.004Z,1015.92
2017-10-26T01:57:36.128Z,1015.92
2017-10-26T01:57:44.275Z,1015.91
2017-10-26T01:57:52.431Z,1015.91
2017-10-26T01:58:00.551Z,1015.88
2017-10-26T01:58:08.684Z,1015.97
2017-10-26T01:58:18.435Z,1015.90
2017-10-26T01:58:26.556Z,1015.90
2017-10-26T01:58:40.453Z,1015.93
2017-10-26T01:58:48.668Z,1015.90
2017-10-26T01:58:56.798Z,1015.84
2017-10-26T01:59:04.941Z,1015.87
2017-10-26T01:59:13.272Z,1015.86
2017-10-26T01:59:21.221Z,1015.90
2017-10-26T01:59:31.156Z,1015.88
2017-10-26T01:59:39.094Z,1015.92
2017-10-26T01:59:47.236Z,1015.99
2017-10-26T01:59:55.370Z,1015.93
2017-10-26T02:00:03.490Z,1015.90
2017-10-26T02:00:11.641Z,1015.88
2017-10-26T02:00:19.767Z,1015.97
2017-10-26T02:00:27.920Z,1015.91
2017-10-26T02:00:36.045Z,1015.87
2017-10-26T02:00:44.180Z,1015.79
2017-10-26T02:00:53.928Z,1015.85
2017-10-26T02:01:03.663Z,1015.89
2017-10-26T02:01:13.403Z,1015.93
2017-10-26T02:01:21.544Z,1015.86
2017-10-26T02:01:29.688Z,1015.89
2017-10-26T02:01:37.820Z,1015.90
2017-10-26T02:01:45.944Z,1015.89
2017-10-26T02:01:54.092Z,1015.95
2017-10-26T02:02:04.012Z,1015.88
2017-10-26T02:02:11.965Z,1015.89
2017-10-26T02:02:21.717Z,1015.89
2017-10-26T02:02:29.829Z,1015.85
2017-10-26T02:02:39.585Z,1015.91
2017-10-26T02:02:49.333Z,1015.92
2017-10-26T02:02:57.467Z,1015.89
2017-10-26T02:03:05.588Z,1015.86
2017-10-26T02:03:13.724Z,1015.80
2017-10-26T02:03:21.868Z,1015.86
2017-10-26T02:03:31.599Z,1015.90
2017-10-26T02:03:41.340Z,1015.80
2017-10-26T02:03:49.476Z,1015.83
2017-10-26T02:03:57.624Z,1015.81
2017-10-26T02:04:05.752Z,1015.82
2017-10-26T02:04:13.896Z,1015.82
2017-10-26T02:04:22.041Z,1015.89
2017-10-26T02:04:30.176Z,1015.83
2017-10-26T02:04:39.920Z,1015.88
2017-10-26T02:04:48.049Z,1015.83
2017-10-26T02:04:56.189Z,1015.81
2017-10-26T02:05:04.315Z,1015.84
2017-10-26T02:05:18.908Z,1015.79
2017-10-26T02:05:29.620Z,1015.79
2017-10-26T02:05:39.357Z,1015.84
2017-10-26T02:05:47.497Z,1015.77
2017-10-26T02:05:55.644Z,1015.80
2017-10-26T02:06:03.781Z,1015.83